Time;durP1;ratioP1;P1;durP2;ratioP2;P2;SDS_P1;SDS_P2;PMS_P1;PMS_P2;Temp;Humidity;BMP_temperature;BMP_pressure;BME280_temperature;BME280_humidity;BME280_pressure;Samples;Min_cycle;Max_cycle;Signal;HPM_P1;HPM_P2
2021/09/14 00:00:52;;;;;;;11.60;7.70;;;;;;;14.91;79.79;98865.54;111110;1203;60801;-22
2021/09/14 00:03:19;;;;;;;15.40;8.60;;;;;;;15.32;79.65;98863.95;111156;1203;74314;-22
2021/09/14 00:05:46;;;;;;;16.10;9.40;;;;;;;15.79;77.33;98868.50;111200;1203;75370;-21
2021/09/14 00:08:13;;;;;;;17.20;9.80;;;;;;;15.74;76.98;98869.38;111109;1203;73358;-21
2021/09/14 00:11:00;;;;;;;21.50;9.50;;;;;;;15.46;77.93;98867.41;111132;1202;62570;-21
2021/09/14 00:13:26;;;;;;;14.90;9.60;;;;;;;15.23;78.11;98867.00;111117;1202;60877;-21
2021/09/14 00:15:53;;;;;;;13.90;7.50;;;;;;;15.00;79.07;98866.30;111171;1202;74431;-21
2021/09/14 00:18:40;;;;;;;13.90;8.40;;;;;;;15.45;78.23;98870.85;111124;1202;76700;-21
2021/09/14 00:21:07;;;;;;;13.40;9.20;;;;;;;15.79;76.30;98876.52;111153;1203;71717;-21
2021/09/14 00:23:34;;;;;;;11.20;8.00;;;;;;;15.68;76.01;98876.13;111081;1202;61647;-21
2021/09/14 00:26:01;;;;;;;14.40;8.90;;;;;;;15.42;76.53;98877.46;111129;1202;60836;-22
2021/09/14 00:28:29;;;;;;;14.10;9.30;;;;;;;15.11;77.48;98877.29;111152;1202;74233;-22
2021/09/14 00:30:57;;;;;;;12.80;6.90;;;;;;;14.86;78.42;98879.25;111131;1203;74476;-21
2021/09/14 00:33:24;;;;;;;13.50;7.90;;;;;;;15.22;77.97;98878.63;111106;1202;72880;-21
2021/09/14 00:35:51;;;;;;;12.80;8.90;;;;;;;15.68;76.36;98876.20;111177;1202;61490;-21
2021/09/14 00:38:19;;;;;;;16.10;9.80;;;;;;;15.69;76.08;98874.33;111196;1202;60844;-21
2021/09/14 00:40:47;;;;;;;17.10;10.60;;;;;;;15.50;76.56;98870.17;111155;1202;73452;-21
2021/09/14 00:43:21;;;;;;;15.40;11.00;;;;;;;15.23;77.00;98870.27;111211;1202;75362;-21
2021/09/14 00:45:49;;;;;;;13.70;8.40;;;;;;;14.99;78.06;98868.06;111033;1203;74022;-22
2021/09/14 00:48:16;;;;;;;15.00;8.70;;;;;;;15.39;77.51;98870.95;111040;1203;60872;-22
2021/09/14 00:50:44;;;;;;;14.60;9.30;;;;;;;15.84;75.69;98870.09;111121;1202;60833;-21
2021/09/14 00:53:12;;;;;;;14.20;9.30;;;;;;;15.81;75.70;98869.04;111095;1202;74335;-21
2021/09/14 00:55:39;;;;;;;15.80;10.90;;;;;;;15.56;76.36;98866.86;111095;1202;74534;-21
2021/09/14 00:58:06;;;;;;;18.20;11.90;;;;;;;15.27;77.47;98871.47;111086;1203;74038;-22
2021/09/14 01:00:33;;;;;;;18.60;8.90;;;;;;;14.98;78.76;98871.98;111133;1202;63279;-21
2021/09/14 01:03:01;;;;;;;16.40;9.70;;;;;;;15.28;78.44;98871.40;111105;1203;61802;-21
2021/09/14 01:05:28;;;;;;;16.40;11.70;;;;;;;15.64;76.80;98869.54;111164;1203;73871;-22
2021/09/14 01:07:56;;;;;;;18.80;10.10;;;;;;;15.59;76.72;98862.58;111133;1202;75384;-21
2021/09/14 01:10:23;;;;;;;19.10;12.20;;;;;;;15.40;77.24;98865.27;111059;1202;73005;-21
2021/09/14 01:13:10;;;;;;;21.80;12.20;;;;;;;15.11;78.32;98865.42;111117;1202;61568;-22
2021/09/14 01:16:07;;;;;;;15.10;8.70;;;;;;;14.94;79.06;98866.27;111089;1202;61628;-22
2021/09/14 01:18:34;;;;;;;19.60;9.20;;;;;;;15.51;77.80;98870.76;111129;1202;73986;-21
2021/09/14 01:21:01;;;;;;;15.40;10.10;;;;;;;15.91;76.07;98873.05;111130;1202;75564;-21
2021/09/14 01:23:28;;;;;;;17.50;10.60;;;;;;;15.82;75.81;98877.11;111081;1202;73393;-21
2021/09/14 01:25:57;;;;;;;21.20;12.20;;;;;;;15.55;76.26;98877.89;111142;1202;60868;-21
2021/09/14 01:28:24;;;;;;;17.80;11.90;;;;;;;15.17;78.20;98882.25;111155;1202;60775;-22
2021/09/14 01:30:51;;;;;;;17.50;9.80;;;;;;;14.91;79.26;98884.77;111198;1202;75132;-21
2021/09/14 01:33:18;;;;;;;17.90;10.20;;;;;;;15.23;78.56;98886.20;111150;1202;75361;-21
2021/09/14 01:35:47;;;;;;;17.50;10.00;;;;;;;15.62;76.94;98885.02;111157;1202;74245;-21
2021/09/14 01:38:14;;;;;;;18.40;11.00;;;;;;;15.60;76.39;98884.19;111128;1202;60794;-21
2021/09/14 01:40:47;;;;;;;17.00;11.30;;;;;;;15.37;77.27;98887.75;111138;1202;60944;-23
2021/09/14 01:43:14;;;;;;;19.00;12.00;;;;;;;15.08;78.24;98887.21;111181;1202;75777;-25
2021/09/14 01:45:42;;;;;;;15.80;9.00;;;;;;;14.86;79.20;98895.73;111183;1202;74167;-23
2021/09/14 01:48:19;;;;;;;16.70;9.70;;;;;;;15.25;78.45;98895.58;111136;1202;72977;-23
2021/09/14 01:50:47;;;;;;;17.60;10.20;;;;;;;15.64;76.62;98893.33;111136;1202;60785;-24
2021/09/14 01:53:15;;;;;;;20.60;11.50;;;;;;;15.57;76.79;98890.42;111195;1202;60826;-22
2021/09/14 01:55:42;;;;;;;17.40;11.70;;;;;;;15.30;77.54;98893.41;111117;1202;72922;-23
2021/09/14 01:58:10;;;;;;;25.90;12.90;;;;;;;14.96;78.65;98893.12;111145;1202;72759;-22
2021/09/14 02:00:42;;;;;;;16.90;9.80;;;;;;;14.69;79.63;98896.15;111151;1202;74092;-22
2021/09/14 02:03:23;;;;;;;19.80;11.20;;;;;;;15.02;78.79;98895.92;111106;1202;60865;-23
2021/09/14 02:08:51;;;;;;;17.90;11.30;;;;;;;15.20;77.35;98899.97;111136;1195;75118;-22
2021/09/14 02:58:41;;;;;;;20.40;10.40;;;;;;;14.32;78.62;98918.73;111153;1196;60842;-22
2021/09/14 03:01:09;;;;;;;16.20;11.40;;;;;;;14.01;79.79;98921.08;111196;1202;60986;-22
2021/09/14 03:03:38;;;;;;;14.40;7.90;;;;;;;13.76;80.72;98916.82;111075;1202;74141;-22
2021/09/14 03:06:05;;;;;;;14.30;9.40;;;;;;;14.14;80.16;98918.88;111185;1202;74738;-22
2021/09/14 03:08:40;;;;;;;16.70;9.80;;;;;;;14.54;78.24;98921.61;111101;1202;74255;-22
2021/09/14 03:11:12;;;;;;;17.10;10.60;;;;;;;14.47;77.93;98919.91;111124;1204;60849;-22
2021/09/14 03:14:05;;;;;;;16.40;10.20;;;;;;;14.11;79.03;98927.27;111078;1203;62739;-23
2021/09/14 03:16:52;;;;;;;17.00;10.90;;;;;;;13.75;80.24;98924.79;111118;1202;76414;-23
2021/09/14 03:19:19;;;;;;;14.20;7.90;;;;;;;13.51;81.50;98928.64;111127;1202;74627;-23
2021/09/14 03:21:58;;;;;;;13.70;8.40;;;;;;;13.94;80.89;98928.13;111133;1203;73853;-22
2021/09/14 03:24:25;;;;;;;15.80;9.30;;;;;;;14.32;78.77;98929.41;111121;1202;60888;-22
2021/09/14 03:26:53;;;;;;;13.60;8.90;;;;;;;14.31;78.27;98931.23;111079;1200;60884;-22
2021/09/14 03:29:21;;;;;;;14.80;10.60;;;;;;;14.08;79.01;98935.55;111217;1202;75158;-22
2021/09/14 03:31:48;;;;;;;18.70;11.70;;;;;;;13.78;79.96;98935.98;111165;1202;75575;-22
2021/09/14 03:34:16;;;;;;;16.10;8.50;;;;;;;13.55;81.04;98939.08;111161;1202;74071;-22
2021/09/14 03:36:43;;;;;;;14.70;9.40;;;;;;;13.94;80.50;98940.38;111190;1203;60884;-22
2021/09/14 03:39:10;;;;;;;14.30;9.50;;;;;;;14.41;78.26;98939.66;111181;1202;60859;-22
2021/09/14 03:41:37;;;;;;;17.40;10.60;;;;;;;14.39;78.13;98941.63;111154;1202;74175;-22
2021/09/14 03:44:04;;;;;;;18.70;10.50;;;;;;;14.17;78.78;98942.04;111075;1202;74355;-22
2021/09/14 03:46:31;;;;;;;15.50;10.90;;;;;;;13.87;79.42;98947.02;111167;1202;74095;-22
2021/09/14 03:49:02;;;;;;;14.80;9.60;;;;;;;13.62;80.29;98949.78;111136;1202;61788;-22
2021/09/14 03:51:31;;;;;;;16.60;10.40;;;;;;;13.99;79.68;98949.16;111177;1202;60842;-22
2021/09/14 03:53:58;;;;;;;17.70;10.00;;;;;;;14.38;78.16;98951.48;111183;1196;75267;-22
2021/09/14 03:56:25;;;;;;;14.50;10.60;;;;;;;14.36;78.03;98952.08;111087;1203;75329;-23
2021/09/14 03:58:53;;;;;;;16.70;10.90;;;;;;;14.15;78.27;98954.45;111083;1204;72920;-22
2021/09/14 04:01:20;;;;;;;16.20;12.00;;;;;;;13.89;78.96;98949.61;111136;1196;60875;-22
2021/09/14 04:04:18;;;;;;;16.30;8.90;;;;;;;13.64;79.96;98955.83;111121;1202;62778;-22
2021/09/14 04:06:56;;;;;;;16.70;9.70;;;;;;;14.13;78.74;98960.23;111134;1195;75123;-22
2021/09/14 04:09:24;;;;;;;14.80;9.40;;;;;;;14.48;76.92;98959.42;111165;1198;74750;-22
2021/09/14 04:11:53;;;;;;;16.00;10.80;;;;;;;14.30;76.98;98962.59;111157;1204;73186;-22
2021/09/14 04:14:25;;;;;;;15.50;11.30;;;;;;;13.94;78.52;98963.48;111158;1204;60859;-22
2021/09/14 04:16:53;;;;;;;16.80;12.00;;;;;;;13.64;79.54;98966.45;111153;1202;62084;-22
2021/09/14 04:19:21;;;;;;;13.70;8.60;;;;;;;13.38;80.77;98968.52;111151;1202;75100;-24
2021/09/14 04:21:54;;;;;;;19.00;10.30;;;;;;;13.71;79.93;98973.52;111119;1202;74443;-22
2021/09/14 04:24:28;;;;;;;17.60;11.20;;;;;;;13.95;79.01;98977.52;111162;1202;74192;-22
2021/09/14 04:26:54;;;;;;;14.90;11.00;;;;;;;13.97;78.61;98977.77;111125;1196;60892;-22
2021/09/14 04:29:22;;;;;;;13.90;10.10;;;;;;;13.82;79.31;98975.75;111161;1195;60891;-22
2021/09/14 04:31:49;;;;;;;14.30;11.00;;;;;;;13.63;79.74;98976.21;111120;1203;73690;-22
2021/09/14 04:34:16;;;;;;;13.00;8.00;;;;;;;13.47;80.64;98976.50;111116;1202;74348;-22
2021/09/14 04:36:46;;;;;;;11.60;8.00;;;;;;;13.98;79.57;98976.01;111173;1202;74001;-22
2021/09/14 04:39:14;;;;;;;13.30;10.10;;;;;;;14.57;77.50;98976.73;111153;1204;61519;-22
2021/09/14 04:41:46;;;;;;;14.60;10.60;;;;;;;14.71;76.62;98978.51;111164;1195;60790;-22
2021/09/14 04:44:14;;;;;;;15.30;10.80;;;;;;;14.69;77.08;98983.73;111171;1195;74765;-23
2021/09/14 04:46:41;;;;;;;14.20;10.90;;;;;;;14.59;77.77;98987.68;111210;1203;73633;-22
2021/09/14 04:49:09;;;;;;;11.50;7.40;;;;;;;14.54;78.45;98987.80;111106;1202;73791;-22
2021/09/14 04:51:39;;;;;;;12.90;8.80;;;;;;;15.07;77.46;98990.96;111139;1202;60952;-22
2021/09/14 04:54:06;;;;;;;12.50;9.60;;;;;;;15.68;75.01;98986.89;111201;1202;60848;-22
2021/09/14 04:56:33;;;;;;;13.40;9.80;;;;;;;15.85;74.38;98990.59;111208;1202;73849;-22
2021/09/14 04:59:00;;;;;;;14.20;10.80;;;;;;;15.78;74.48;98993.39;111115;1202;75411;-22
2021/09/14 05:01:28;;;;;;;18.80;11.60;;;;;;;15.63;74.61;98990.69;111154;1202;74185;-23
2021/09/14 05:03:55;;;;;;;19.40;11.30;;;;;;;15.48;75.43;98991.74;111119;1200;60884;-23
2021/09/14 05:06:26;;;;;;;11.30;7.80;;;;;;;15.36;76.15;98997.88;111121;1202;60915;-23
2021/09/14 05:08:53;;;;;;;12.10;8.50;;;;;;;15.83;74.94;98997.94;111164;1202;75153;-22
2021/09/14 05:11:26;;;;;;;14.30;9.30;;;;;;;16.40;73.53;99002.50;111152;1202;75594;-22
2021/09/14 05:13:53;;;;;;;37.00;11.70;;;;;;;16.48;73.05;99005.45;111136;1196;73338;-22
2021/09/14 05:16:21;;;;;;;15.70;10.30;;;;;;;16.34;73.42;99003.65;111137;1202;60858;-23
2021/09/14 05:19:10;;;;;;;19.80;11.20;;;;;;;16.17;74.36;99002.71;111171;1202;60849;-21
2021/09/14 05:22:00;;;;;;;14.80;10.70;;;;;;;15.88;75.94;99003.74;111142;1202;74734;-23
2021/09/14 05:24:30;;;;;;;16.40;8.20;;;;;;;15.84;76.92;99005.34;111083;1200;74605;-23
2021/09/14 05:26:57;;;;;;;13.90;8.10;;;;;;;16.39;75.73;99007.88;111192;1202;73960;-23
2021/09/14 05:29:24;;;;;;;36.60;10.90;;;;;;;16.99;73.88;99008.04;111120;1202;60858;-23
2021/09/14 05:31:51;;;;;;;33.10;9.60;;;;;;;17.10;73.36;99008.89;111166;1203;60833;-23
2021/09/14 05:34:20;;;;;;;12.90;9.60;;;;;;;16.88;73.29;99012.02;111182;1202;74245;-22
2021/09/14 05:36:49;;;;;;;12.10;9.30;;;;;;;16.56;74.19;99014.30;111088;1202;74492;-22
2021/09/14 05:39:16;;;;;;;21.30;10.00;;;;;;;16.31;74.99;99012.09;111214;1202;74074;-22
2021/09/14 05:41:43;;;;;;;9.80;7.40;;;;;;;16.32;75.93;99013.66;111108;1202;62280;-21
2021/09/14 05:44:11;;;;;;;10.60;8.20;;;;;;;16.67;73.90;99012.67;111152;1202;61643;-21
2021/09/14 05:46:38;;;;;;;11.30;8.30;;;;;;;16.92;73.07;99009.23;111108;1203;75089;-22
2021/09/14 05:49:06;;;;;;;9.90;7.00;;;;;;;16.83;72.94;99011.10;111113;1202;75496;-24
2021/09/14 05:51:34;;;;;;;12.10;7.60;;;;;;;16.76;73.40;99013.02;111162;1202;73970;-23
2021/09/14 05:54:04;;;;;;;14.70;7.80;;;;;;;16.60;73.89;99014.02;111188;1202;60848;-22
2021/09/14 05:56:32;;;;;;;12.10;7.90;;;;;;;16.44;75.13;99014.16;111148;1202;60778;-21
2021/09/14 05:59:07;;;;;;;13.70;5.90;;;;;;;16.48;75.65;99016.20;111161;1202;74117;-21
2021/09/14 06:01:34;;;;;;;8.70;6.50;;;;;;;17.17;73.83;99015.17;111116;1202;75490;-22
2021/09/14 06:04:03;;;;;;;9.80;6.80;;;;;;;17.57;71.88;99016.46;111193;1200;74038;-22
2021/09/14 06:06:30;;;;;;;89.80;10.10;;;;;;;17.67;71.40;99018.41;111222;1202;60858;-23
2021/09/14 06:09:17;;;;;;;10.20;6.80;;;;;;;17.49;71.90;99017.35;111146;1201;62760;-21
2021/09/14 06:11:44;;;;;;;14.10;8.30;;;;;;;17.21;72.96;99021.05;111161;1200;75056;-22
2021/09/14 06:14:12;;;;;;;10.00;7.20;;;;;;;16.93;73.39;99019.30;111246;1200;75518;-21
2021/09/14 06:16:39;;;;;;;8.30;5.50;;;;;;;16.76;74.33;99021.52;111131;1202;72881;-21
2021/09/14 06:19:07;;;;;;;9.00;6.40;;;;;;;17.23;73.49;99015.55;111185;1196;60948;-23
2021/09/14 06:21:51;;;;;;;;;;;;;;;17.79;72.17;99013.58;111202;1202;60845;-21
2021/09/14 06:24:18;;;;;;;7.60;5.90;;;;;;;17.96;71.82;99007.48;111119;1202;75398;-22
2021/09/14 06:26:45;;;;;;;7.80;6.10;;;;;;;17.93;71.15;99008.58;111196;1202;73241;-22
2021/09/14 06:29:13;;;;;;;8.90;6.50;;;;;;;17.91;70.87;99010.16;111150;1201;73835;-21
2021/09/14 06:31:47;;;;;;;8.10;6.60;;;;;;;17.88;71.67;99014.36;111131;1202;61053;-21
2021/09/14 06:34:35;;;;;;;8.80;4.90;;;;;;;17.85;71.56;99006.45;111105;1201;61463;-21
2021/09/14 06:37:03;;;;;;;7.60;5.30;;;;;;;18.52;70.02;99001.75;111141;1202;75194;-22
2021/09/14 06:39:35;;;;;;;81.10;10.40;;;;;;;19.10;68.23;98998.91;111142;1195;75533;-23
2021/09/14 06:42:03;;;;;;;10.40;5.40;;;;;;;19.21;67.14;98997.48;111185;1201;73933;-22
2021/09/14 06:44:34;;;;;;;7.50;5.30;;;;;;;19.08;66.14;98996.82;111024;1204;62016;-22
2021/09/14 06:47:04;;;;;;;7.50;5.40;;;;;;;19.03;65.99;98994.64;111161;1202;61242;-22
2021/09/14 06:49:31;;;;;;;7.00;5.20;;;;;;;19.01;66.71;99000.66;111161;1201;75303;-22
2021/09/14 06:52:00;;;;;;;6.50;5.00;;;;;;;18.97;66.67;99006.55;111126;1201;75224;-22
2021/09/14 06:54:27;;;;;;;6.40;5.30;;;;;;;18.82;67.04;99006.66;111114;1202;73332;-21
2021/09/14 06:56:55;;;;;;;7.60;5.60;;;;;;;18.74;67.64;99008.80;111168;1201;60897;-22
2021/09/14 06:59:23;;;;;;;6.70;5.30;;;;;;;18.90;66.62;99012.33;111194;1201;60849;-21
2021/09/14 07:01:52;;;;;;;5.90;4.40;;;;;;;18.97;65.46;99011.86;111123;1201;74561;-22
2021/09/14 07:04:39;;;;;;;7.90;4.80;;;;;;;18.95;64.71;99013.70;111143;1202;75366;-22
2021/09/14 07:07:06;;;;;;;6.00;4.70;;;;;;;18.98;65.28;99014.14;111176;1201;74079;-23
2021/09/14 07:09:34;;;;;;;7.90;5.90;;;;;;;19.04;65.03;99018.44;111108;1196;61626;-21
2021/09/14 07:12:21;;;;;;;10.70;5.50;;;;;;;18.93;64.97;99022.33;111147;1201;61446;-22
2021/09/14 07:14:50;;;;;;;7.20;5.80;;;;;;;18.87;65.12;99024.98;111159;1203;76651;-22
2021/09/14 07:17:37;;;;;;;8.00;5.00;;;;;;;18.83;65.95;99027.48;111139;1202;76880;-21
2021/09/14 07:20:08;;;;;;;5.60;4.40;;;;;;;18.92;66.07;99028.95;111198;1202;73227;-22
2021/09/14 07:22:36;;;;;;;5.60;3.40;;;;;;;19.04;66.19;99030.51;111129;1201;62535;-22
2021/09/14 07:25:04;;;;;;;6.20;3.40;;;;;;;19.72;63.27;99028.34;111171;1202;61466;-22
2021/09/14 07:27:33;;;;;;;6.10;4.30;;;;;;;20.32;60.95;99028.38;111205;1204;75095;-22
2021/09/14 07:30:00;;;;;;;6.50;3.90;;;;;;;20.43;60.65;99029.90;111118;1202;75276;-22
2021/09/14 07:32:27;;;;;;;5.00;3.70;;;;;;;20.46;60.71;99029.16;111187;1201;73884;-22
2021/09/14 07:34:54;;;;;;;6.40;3.70;;;;;;;20.15;59.46;99026.40;111138;1202;61056;-22
2021/09/14 07:37:21;;;;;;;4.80;3.60;;;;;;;20.06;60.28;99027.36;111144;1202;60845;-22
2021/09/14 07:39:48;;;;;;;7.30;4.80;;;;;;;19.96;60.98;99028.64;111181;1202;75042;-21
2021/09/14 07:42:15;;;;;;;7.50;5.00;;;;;;;19.84;63.44;99031.63;111170;1201;74575;-23
2021/09/14 07:44:41;;;;;;;4.30;3.40;;;;;;;19.83;63.31;99031.61;111109;1202;73260;-21
2021/09/14 07:47:10;;;;;;;7.40;3.70;;;;;;;19.94;60.24;99031.45;111199;1201;61299;-21
2021/09/14 07:49:37;;;;;;;6.10;4.10;;;;;;;19.98;60.62;99033.34;111131;1200;60850;-22
2021/09/14 07:52:18;;;;;;;5.80;4.60;;;;;;;19.85;61.31;99030.94;111167;1203;75036;-21
2021/09/14 07:54:46;;;;;;;55.20;6.10;;;;;;;19.84;60.50;99033.82;111218;1201;75830;-21
2021/09/14 07:57:22;;;;;;;6.30;4.20;;;;;;;19.92;60.11;99034.64;111109;1201;74083;-22
2021/09/14 07:59:48;;;;;;;6.40;3.10;;;;;;;20.09;59.94;99030.16;111176;1201;61548;-19
2021/09/14 08:02:16;;;;;;;9.40;3.40;;;;;;;20.23;59.83;99027.91;111226;1202;60848;-22
2021/09/14 08:04:42;;;;;;;4.30;2.90;;;;;;;20.35;58.91;99025.89;111198;1201;75048;-22
2021/09/14 08:07:09;;;;;;;6.40;3.50;;;;;;;20.42;58.11;99026.68;111180;1201;75674;-22
2021/09/14 08:09:36;;;;;;;5.30;3.30;;;;;;;20.44;57.86;99026.17;111160;1202;73998;-21
2021/09/14 08:12:04;;;;;;;5.50;3.30;;;;;;;20.44;57.98;99026.25;111114;1202;60848;-22
2021/09/14 08:14:31;;;;;;;7.00;3.00;;;;;;;20.44;58.26;99033.66;111120;1202;61566;-22
2021/09/14 08:16:58;;;;;;;4.80;2.30;;;;;;;20.56;57.20;99030.76;111166;1202;74280;-22
2021/09/14 08:19:25;;;;;;;15.80;3.20;;;;;;;20.62;54.90;99033.73;111150;1202;74530;-22
2021/09/14 08:21:53;;;;;;;4.30;2.50;;;;;;;20.65;54.00;99034.29;111185;1202;73200;-21
2021/09/14 08:24:20;;;;;;;3.80;2.40;;;;;;;20.57;54.33;99037.52;111126;1201;60749;-22
2021/09/14 08:26:49;;;;;;;6.70;2.70;;;;;;;20.64;54.89;99036.48;111190;1195;60842;-22
2021/09/14 08:29:17;;;;;;;7.40;2.70;;;;;;;20.76;55.13;99030.96;111160;1201;74879;-24
2021/09/14 08:31:44;;;;;;;4.00;2.40;;;;;;;20.91;53.78;99032.92;111146;1201;75527;-23
2021/09/14 08:34:11;;;;;;;3.60;2.20;;;;;;;21.05;52.73;99033.17;111161;1201;72929;-21
2021/09/14 08:36:38;;;;;;;4.80;2.60;;;;;;;21.20;52.72;99038.56;111200;1201;60845;-21
2021/09/14 08:39:05;;;;;;;4.50;2.90;;;;;;;21.44;53.51;99033.52;111169;1202;60855;-21
2021/09/14 08:41:32;;;;;;;5.20;2.70;;;;;;;21.48;52.95;99031.74;111189;1201;75113;-21
2021/09/14 08:44:00;;;;;;;11.40;3.10;;;;;;;21.61;52.07;99037.11;111084;1203;75698;-24
2021/09/14 08:46:27;;;;;;;3.40;2.40;;;;;;;21.67;52.22;99036.45;111174;1201;74042;-20
2021/09/14 08:48:54;;;;;;;7.10;2.80;;;;;;;21.62;51.88;99034.64;111175;1202;61360;-24
2021/09/14 08:51:21;;;;;;;4.30;2.30;;;;;;;21.46;51.62;99035.08;111180;1204;60888;-22
2021/09/14 08:53:48;;;;;;;5.40;3.10;;;;;;;21.26;52.57;99036.29;111147;1201;75187;-24
2021/09/14 08:56:15;;;;;;;4.20;2.90;;;;;;;21.03;53.21;99033.82;111120;1200;75498;-23
2021/09/14 08:58:43;;;;;;;3.30;2.40;;;;;;;21.01;52.52;99032.51;111180;1202;73722;-22
2021/09/14 09:01:11;;;;;;;2.70;2.20;;;;;;;21.29;52.52;99035.44;111122;1202;60785;-22
2021/09/14 09:03:39;;;;;;;5.30;2.70;;;;;;;21.59;51.90;99032.33;111183;1202;61576;-21
2021/09/14 09:06:12;;;;;;;5.90;2.60;;;;;;;21.75;52.43;99034.70;111177;1201;75142;-22
2021/09/14 09:08:39;;;;;;;2.80;2.00;;;;;;;22.05;50.36;99030.13;111157;1200;75761;-21
2021/09/14 09:11:07;;;;;;;5.20;2.20;;;;;;;22.40;50.05;99030.81;111109;1201;73773;-22
2021/09/14 09:13:43;;;;;;;6.10;2.80;;;;;;;22.58;49.82;99032.30;111088;1200;60859;-21
2021/09/14 09:16:20;;;;;;;6.00;2.90;;;;;;;22.50;50.18;99032.02;111099;1201;60893;-22
2021/09/14 09:18:54;;;;;;;3.30;2.50;;;;;;;22.14;49.98;99029.30;111182;1202;75054;-22
2021/09/14 09:21:47;;;;;;;3.80;3.00;;;;;;;21.73;51.30;99029.04;111134;1202;73951;-22
2021/09/14 09:24:16;;;;;;;5.10;3.00;;;;;;;21.44;51.69;99032.70;111101;1202;73068;-22
2021/09/14 09:26:44;;;;;;;5.20;2.90;;;;;;;21.42;51.85;99031.59;111132;1202;60822;-22
2021/09/14 09:29:19;;;;;;;4.10;2.90;;;;;;;21.62;51.74;99034.52;111204;1201;60822;-22
2021/09/14 09:31:47;;;;;;;12.60;3.20;;;;;;;21.70;51.60;99030.75;111164;1202;74092;-24
2021/09/14 09:34:14;;;;;;;4.20;3.10;;;;;;;21.87;51.73;99032.86;111189;1204;76231;-25
2021/09/14 09:36:42;;;;;;;4.40;2.90;;;;;;;22.05;50.48;99027.68;111166;1202;71639;-19
2021/09/14 09:39:11;;;;;;;2.90;2.30;;;;;;;21.76;51.35;99032.28;111166;1200;60836;-22
2021/09/14 09:41:53;;;;;;;3.10;2.30;;;;;;;21.41;52.55;99032.40;111133;1204;61411;-22
2021/09/14 09:44:20;;;;;;;4.60;2.80;;;;;;;21.23;52.46;99031.70;111171;1202;75136;-22
2021/09/14 09:46:57;;;;;;;6.10;2.70;;;;;;;21.04;53.94;99034.40;111144;1201;75634;-24
2021/09/14 09:49:24;;;;;;;4.90;2.50;;;;;;;20.70;54.36;99035.59;111165;1202;73235;-24
2021/09/14 09:51:53;;;;;;;4.60;2.40;;;;;;;20.53;54.58;99041.11;111205;1201;61250;-24
2021/09/14 09:54:20;;;;;;;3.80;2.00;;;;;;;20.50;55.37;99038.92;111187;1200;60857;-21
2021/09/14 09:56:51;;;;;;;3.50;2.60;;;;;;;20.79;54.73;99035.71;111201;1200;73930;-22
2021/09/14 09:59:18;;;;;;;2.80;2.30;;;;;;;21.36;54.51;99034.45;111141;1200;75283;-22
2021/09/14 10:02:22;;;;;;;4.20;2.90;;;;;;;21.82;51.79;99030.55;111140;1200;73893;-21
2021/09/14 10:04:59;;;;;;;4.20;2.50;;;;;;;21.33;51.67;99028.81;110897;1198;60980;-22
2021/09/14 10:07:30;;;;;;;5.20;2.20;;;;;;;20.68;52.89;99035.41;110775;1205;60999;-22
2021/09/14 10:09:58;;;;;;;5.00;2.40;;;;;;;20.46;54.09;99042.02;110620;1206;74169;-22
2021/09/14 10:12:26;;;;;;;6.30;2.40;;;;;;;20.36;55.02;99042.20;110762;1203;74831;-22
2021/09/14 10:14:57;;;;;;;18.80;3.40;;;;;;;20.33;54.87;99042.02;110891;1208;73896;-22
2021/09/14 10:17:26;;;;;;;4.80;2.30;;;;;;;20.22;55.03;99036.31;110786;1203;60867;-22
2021/09/14 10:20:10;;;;;;;3.50;2.20;;;;;;;20.14;55.29;99033.66;110662;1207;60980;-23
2021/09/14 10:22:59;;;;;;;4.10;2.50;;;;;;;20.00;55.48;99041.25;110694;1209;75055;-22
2021/09/14 10:25:27;;;;;;;4.10;2.20;;;;;;;20.05;56.08;99037.44;110739;1201;75655;-22
2021/09/14 10:28:08;;;;;;;3.20;2.70;;;;;;;20.54;55.11;99037.70;110786;1207;73925;-24
2021/09/14 10:30:35;;;;;;;3.70;2.30;;;;;;;21.13;53.95;99035.17;110752;1208;60866;-24
2021/09/14 10:33:03;;;;;;;37.10;3.70;;;;;;;21.82;52.17;99034.18;110751;1207;60801;-22
2021/09/14 10:35:35;;;;;;;5.30;2.60;;;;;;;22.46;51.80;99032.65;110894;1207;74955;-21
2021/09/14 10:38:06;;;;;;;7.10;2.60;;;;;;;22.58;49.14;99025.92;110725;1207;76009;-22
2021/09/14 10:40:41;;;;;;;5.50;2.30;;;;;;;22.35;49.16;99034.14;110758;1205;74328;-22
2021/09/14 10:43:20;;;;;;;4.80;2.80;;;;;;;22.45;48.06;99033.55;111156;1200;60849;-24
2021/09/14 10:45:47;;;;;;;4.50;2.20;;;;;;;22.04;49.17;99026.49;111153;1200;61393;-22
2021/09/14 10:48:34;;;;;;;2.70;2.30;;;;;;;21.61;49.15;99034.76;111169;1201;74096;-22
2021/09/14 10:51:13;;;;;;;2.70;2.30;;;;;;;21.84;49.44;99032.15;111176;1195;75549;-19
2021/09/14 10:53:40;;;;;;;2.90;2.00;;;;;;;22.17;49.43;99029.30;111150;1196;73928;-19
2021/09/14 10:56:09;;;;;;;3.70;2.40;;;;;;;22.46;48.63;99027.83;111261;1202;60857;-20
2021/09/14 10:58:42;;;;;;;4.30;2.00;;;;;;;22.59;48.78;99024.38;111206;1203;60957;-19
2021/09/14 11:01:13;;;;;;;4.60;2.30;;;;;;;22.69;48.12;99018.05;111162;1205;73872;-19
2021/09/14 11:03:41;;;;;;;3.80;2.20;;;;;;;22.59;47.61;99017.45;111228;1205;75798;-20
2021/09/14 11:06:08;;;;;;;5.10;2.60;;;;;;;22.44;48.11;99016.45;111377;1202;72865;-19
2021/09/14 11:08:36;;;;;;;6.10;2.40;;;;;;;22.63;48.62;99010.14;111223;1202;60943;-19
2021/09/14 11:11:22;;;;;;;3.60;2.50;;;;;;;22.99;48.52;99010.13;111330;1202;61875;-19
2021/09/14 11:13:50;;;;;;;3.80;2.30;;;;;;;23.09;48.16;99005.01;111354;1202;75257;-25
2021/09/14 11:16:18;;;;;;;2.90;2.20;;;;;;;22.70;48.53;99001.11;111235;1202;75603;-21
2021/09/14 11:18:45;;;;;;;3.20;2.30;;;;;;;22.62;47.73;99004.09;111246;1202;74009;-20
2021/09/14 11:21:14;;;;;;;3.40;2.60;;;;;;;22.68;47.46;99001.96;111407;1201;61684;-23
2021/09/14 11:23:44;;;;;;;4.70;2.50;;;;;;;22.70;48.61;98994.55;111202;1202;60829;-20
2021/09/14 11:26:13;;;;;;;4.60;2.50;;;;;;;22.80;48.65;99001.55;111235;1202;75005;-28
2021/09/14 11:28:41;;;;;;;6.30;2.60;;;;;;;22.75;48.51;98999.34;111226;1200;75719;-22
2021/09/14 11:31:11;;;;;;;3.80;2.30;;;;;;;22.58;47.16;99004.73;111170;1202;72777;-37
2021/09/14 11:33:42;;;;;;;3.40;2.20;;;;;;;22.11;48.19;99005.55;111178;1202;61636;-26
2021/09/14 11:36:13;;;;;;;2.80;2.00;;;;;;;22.27;48.43;99000.10;111177;1201;62596;-25
2021/09/14 11:38:41;;;;;;;4.20;2.50;;;;;;;22.50;48.87;99001.15;111144;1195;75383;-20
2021/09/14 11:41:10;;;;;;;4.00;2.40;;;;;;;22.48;47.78;99001.33;111157;1202;74577;-20
2021/09/14 11:43:41;;;;;;;9.40;3.00;;;;;;;22.48;46.91;98999.25;111211;1205;72062;-24
2021/09/14 11:46:26;;;;;;;3.50;2.10;;;;;;;22.64;48.03;98998.14;111141;1204;60829;-24
2021/09/14 11:48:59;;;;;;;6.00;2.50;;;;;;;22.81;46.63;99000.37;111088;1200;60788;-24
2021/09/14 11:51:38;;;;;;;3.90;2.10;;;;;;;22.89;45.72;98998.19;111130;1202;74088;-23
2021/09/14 11:54:08;;;;;;;2.70;2.50;;;;;;;23.07;45.94;98997.66;111098;1202;75724;-20
2021/09/14 11:56:35;;;;;;;4.40;2.50;;;;;;;23.08;46.12;98997.90;111139;1203;73061;-23
2021/09/14 11:59:17;;;;;;;4.50;2.50;;;;;;;23.22;46.32;99000.70;111120;1202;60874;-23
2021/09/14 12:01:46;;;;;;;3.80;2.30;;;;;;;23.25;45.68;98999.71;111182;1202;60906;-23
2021/09/14 12:04:17;;;;;;;5.10;2.30;;;;;;;23.02;45.06;98994.48;111189;1202;73017;-24
2021/09/14 12:06:51;;;;;;;3.40;2.60;;;;;;;22.75;45.98;98987.27;111110;1203;73057;-25
2021/09/14 12:09:22;;;;;;;2.60;2.30;;;;;;;22.85;45.98;98986.80;111180;1202;74077;-25
2021/09/14 12:12:16;;;;;;;4.40;2.40;;;;;;;23.01;46.66;98990.20;111164;1203;61598;-25
2021/09/14 12:14:49;;;;;;;86.90;7.40;;;;;;;22.98;46.63;98978.77;111167;1202;60836;-27
2021/09/14 12:17:36;;;;;;;3.60;2.50;;;;;;;22.60;46.93;98976.38;111178;1204;76479;-24
2021/09/14 12:20:07;;;;;;;3.50;2.50;;;;;;;22.56;47.74;98977.88;111301;1202;75599;-23
2021/09/14 12:22:34;;;;;;;3.80;2.20;;;;;;;22.53;48.51;98978.34;111179;1198;74202;-23
2021/09/14 12:25:02;;;;;;;3.30;2.50;;;;;;;22.46;48.45;98981.41;111093;1202;60794;-25